sensor_id;sensor_type;location;lat;lon;timestamp;pressure;altitude;pressure_sealevel;temperature;humidity
33404;BME280;19751;40.274;18.268;2024-01-30T00:01:28;102876.69;;;9.24;47.47
33404;BME280;19751;40.274;18.268;2024-01-30T00:03:53;102882.06;;;9.24;47.52
33404;BME280;19751;40.274;18.268;2024-01-30T00:06:19;102882.06;;;9.24;47.57
33404;BME280;19751;40.274;18.268;2024-01-30T00:08:46;102878.41;;;9.25;47.77
33404;BME280;19751;40.274;18.268;2024-01-30T00:11:14;102875.72;;;9.25;47.56
33404;BME280;19751;40.274;18.268;2024-01-30T00:13:40;102873.28;;;9.22;47.23
33404;BME280;19751;40.274;18.268;2024-01-30T00:16:08;102872.44;;;9.21;46.98
33404;BME280;19751;40.274;18.268;2024-01-30T00:18:34;102877.66;;;9.23;47.07
33404;BME280;19751;40.274;18.268;2024-01-30T00:21:00;102874.97;;;9.23;47.10
33404;BME280;19751;40.274;18.268;2024-01-30T00:23:25;102887.44;;;9.24;46.66
33404;BME280;19751;40.274;18.268;2024-01-30T00:25:51;102887.44;;;9.24;46.62
33404;BME280;19751;40.274;18.268;2024-01-30T00:28:16;102889.41;;;9.22;46.55
33404;BME280;19751;40.274;18.268;2024-01-30T00:30:42;102886.97;;;9.19;46.59
33404;BME280;19751;40.274;18.268;2024-01-30T00:33:08;102883.56;;;9.17;46.78
33404;BME280;19751;40.274;18.268;2024-01-30T00:35:34;102891.50;;;9.18;47.02
33404;BME280;19751;40.274;18.268;2024-01-30T00:37:59;102898.72;;;9.18;47.13
33404;BME280;19751;40.274;18.268;2024-01-30T00:40:25;102890.75;;;9.16;47.01
33404;BME280;19751;40.274;18.268;2024-01-30T00:42:51;102889.34;;;9.12;46.98
33404;BME280;19751;40.274;18.268;2024-01-30T00:45:16;102886.75;;;9.11;47.54
33404;BME280;19751;40.274;18.268;2024-01-30T00:47:42;102885.06;;;9.10;47.45
33404;BME280;19751;40.274;18.268;2024-01-30T00:50:08;102881.75;;;9.06;47.94
33404;BME280;19751;40.274;18.268;2024-01-30T00:52:34;102888.13;;;9.05;47.99
33404;BME280;19751;40.274;18.268;2024-01-30T00:55:01;102885.53;;;9.04;47.87
33404;BME280;19751;40.274;18.268;2024-01-30T00:57:28;102881.06;;;9.04;48.37
33404;BME280;19751;40.274;18.268;2024-01-30T00:59:53;102879.06;;;9.06;48.28
33404;BME280;19751;40.274;18.268;2024-01-30T01:02:19;102879.22;;;9.05;48.07
33404;BME280;19751;40.274;18.268;2024-01-30T01:04:44;102880.91;;;9.06;47.82
33404;BME280;19751;40.274;18.268;2024-01-30T01:07:10;102878.22;;;9.06;47.78
33404;BME280;19751;40.274;18.268;2024-01-30T01:09:38;102875.41;;;9.07;47.52
33404;BME280;19751;40.274;18.268;2024-01-30T01:12:04;102870.03;;;9.07;47.73
33404;BME280;19751;40.274;18.268;2024-01-30T01:14:30;102881.75;;;9.06;47.81
33404;BME280;19751;40.274;18.268;2024-01-30T01:16:55;102874.78;;;9.04;48.16
33404;BME280;19751;40.274;18.268;2024-01-30T01:19:21;102875.69;;;9.04;48.23
33404;BME280;19751;40.274;18.268;2024-01-30T01:21:49;102875.31;;;8.98;48.08
33404;BME280;19751;40.274;18.268;2024-01-30T01:24:15;102872.75;;;8.96;47.54
33404;BME280;19751;40.274;18.268;2024-01-30T01:26:40;102883.53;;;8.96;47.78
33404;BME280;19751;40.274;18.268;2024-01-30T01:34:12;102861.28;;;8.94;46.42
33404;BME280;19751;40.274;18.268;2024-01-30T01:36:38;102870.19;;;8.94;46.14
33404;BME280;19751;40.274;18.268;2024-01-30T01:39:04;102868.25;;;8.96;45.73
33404;BME280;19751;40.274;18.268;2024-01-30T01:41:33;102871.63;;;8.99;46.22
33404;BME280;19751;40.274;18.268;2024-01-30T01:44:01;102867.72;;;9.03;46.12
33404;BME280;19751;40.274;18.268;2024-01-30T01:46:30;102863.19;;;9.03;45.92
33404;BME280;19751;40.274;18.268;2024-01-30T01:48:56;102858.94;;;9.01;45.83
33404;BME280;19751;40.274;18.268;2024-01-30T01:51:24;102867.97;;;9.00;46.13
33404;BME280;19751;40.274;18.268;2024-01-30T01:53:53;102862.59;;;9.00;46.57
33404;BME280;19751;40.274;18.268;2024-01-30T01:56:19;102862.88;;;8.96;47.01
33404;BME280;19751;40.274;18.268;2024-01-30T01:58:46;102858.44;;;8.95;46.66
33404;BME280;19751;40.274;18.268;2024-01-30T02:01:13;102859.44;;;8.94;47.12
33404;BME280;19751;40.274;18.268;2024-01-30T02:03:40;102861.13;;;8.95;47.21
33404;BME280;19751;40.274;18.268;2024-01-30T02:06:09;102861.13;;;8.95;47.49
33404;BME280;19751;40.274;18.268;2024-01-30T02:08:37;102855.03;;;8.93;47.68
33404;BME280;19751;40.274;18.268;2024-01-30T02:11:02;102859.69;;;8.91;47.13
33404;BME280;19751;40.274;18.268;2024-01-30T02:13:28;102863.13;;;8.93;47.02
33404;BME280;19751;40.274;18.268;2024-01-30T02:15:53;102865.81;;;8.93;47.24
33404;BME280;19751;40.274;18.268;2024-01-30T02:18:20;102865.06;;;8.91;47.00
33404;BME280;19751;40.274;18.268;2024-01-30T02:20:48;102857.97;;;8.90;47.14
33404;BME280;19751;40.274;18.268;2024-01-30T02:23:15;102863.34;;;8.90;47.35
33404;BME280;19751;40.274;18.268;2024-01-30T02:25:46;102864.34;;;8.89;47.54
33404;BME280;19751;40.274;18.268;2024-01-30T02:28:13;102865.56;;;8.85;47.32
33404;BME280;19751;40.274;18.268;2024-01-30T02:30:48;102861.19;;;8.84;47.55
33404;BME280;19751;40.274;18.268;2024-01-30T02:33:13;102873.03;;;8.82;47.25
33404;BME280;19751;40.274;18.268;2024-01-30T02:35:39;102864.25;;;8.80;47.25
33404;BME280;19751;40.274;18.268;2024-01-30T02:38:05;102868.88;;;8.78;47.17
33404;BME280;19751;40.274;18.268;2024-01-30T02:40:31;102864.13;;;8.81;46.63
33404;BME280;19751;40.274;18.268;2024-01-30T02:42:59;102873.88;;;8.82;46.89
33404;BME280;19751;40.274;18.268;2024-01-30T02:45:25;102871.19;;;8.82;46.50
33404;BME280;19751;40.274;18.268;2024-01-30T02:47:50;102875.97;;;8.79;46.91
33404;BME280;19751;40.274;18.268;2024-01-30T02:50:16;102866.81;;;8.81;46.45
33404;BME280;19751;40.274;18.268;2024-01-30T02:52:42;102870.47;;;8.80;46.03
33404;BME280;19751;40.274;18.268;2024-01-30T02:55:10;102867.78;;;8.80;46.22
33404;BME280;19751;40.274;18.268;2024-01-30T02:57:36;102873.88;;;8.82;46.27
33404;BME280;19751;40.274;18.268;2024-01-30T03:00:02;102856.91;;;8.82;46.02
33404;BME280;19751;40.274;18.268;2024-01-30T03:02:29;102864.25;;;8.80;46.14
33404;BME280;19751;40.274;18.268;2024-01-30T03:04:57;102864.13;;;8.81;45.86
33404;BME280;19751;40.274;18.268;2024-01-30T03:07:22;102857.75;;;8.82;46.12
33404;BME280;19751;40.274;18.268;2024-01-30T03:09:48;102863.03;;;8.84;46.06
33404;BME280;19751;40.274;18.268;2024-01-30T03:12:13;102862.03;;;8.85;45.74
33404;BME280;19751;40.274;18.268;2024-01-30T03:14:39;102857.38;;;8.87;45.72
33404;BME280;19751;40.274;18.268;2024-01-30T03:17:04;102858.22;;;8.87;45.18
33404;BME280;19751;40.274;18.268;2024-01-30T03:19:30;102852.28;;;8.84;45.73
33404;BME280;19751;40.274;18.268;2024-01-30T03:21:55;102853.22;;;8.83;46.21
33404;BME280;19751;40.274;18.268;2024-01-30T03:24:21;102861.28;;;8.83;46.11
33404;BME280;19751;40.274;18.268;2024-01-30T03:26:46;102855.34;;;8.79;46.76
33404;BME280;19751;40.274;18.268;2024-01-30T03:29:12;102860.97;;;8.76;46.91
33404;BME280;19751;40.274;18.268;2024-01-30T03:31:38;102857.53;;;8.74;46.74
33404;BME280;19751;40.274;18.268;2024-01-30T03:34:04;102854.38;;;8.69;45.71
33404;BME280;19751;40.274;18.268;2024-01-30T03:36:30;102856.94;;;8.70;45.04
33404;BME280;19751;40.274;18.268;2024-01-30T03:38:58;102850.59;;;8.71;45.00
33404;BME280;19751;40.274;18.268;2024-01-30T03:41:24;102855.22;;;8.69;44.75
33404;BME280;19751;40.274;18.268;2024-01-30T03:43:49;102851.44;;;8.72;44.66
33404;BME280;19751;40.274;18.268;2024-01-30T03:46:15;102854.84;;;8.74;44.12
33404;BME280;19751;40.274;18.268;2024-01-30T03:48:41;102854.00;;;8.74;44.04
33404;BME280;19751;40.274;18.268;2024-01-30T03:51:07;102857.53;;;8.74;44.51
33404;BME280;19751;40.274;18.268;2024-01-30T03:53:32;102857.53;;;8.74;44.92
33404;BME280;19751;40.274;18.268;2024-01-30T03:55:58;102847.78;;;8.73;45.22
33404;BME280;19751;40.274;18.268;2024-01-30T03:58:23;102855.84;;;8.73;45.71
33404;BME280;19751;40.274;18.268;2024-01-30T04:00:49;102852.44;;;8.71;45.12
33404;BME280;19751;40.274;18.268;2024-01-30T04:03:14;102848.03;;;8.70;45.05
33404;BME280;19751;40.274;18.268;2024-01-30T04:05:41;102855.13;;;8.71;44.69
33404;BME280;19751;40.274;18.268;2024-01-30T04:08:07;102848.75;;;8.72;44.04
33404;BME280;19751;40.274;18.268;2024-01-30T04:10:33;102857.66;;;8.73;43.57
33404;BME280;19751;40.274;18.268;2024-01-30T04:12:58;102857.91;;;8.69;42.91
33404;BME280;19751;40.274;18.268;2024-01-30T04:15:25;102847.31;;;8.68;43.00
33404;BME280;19751;40.274;18.268;2024-01-30T04:17:50;102854.38;;;8.69;43.29
33404;BME280;19751;40.274;18.268;2024-01-30T04:20:16;102855.22;;;8.69;43.37
33404;BME280;19751;40.274;18.268;2024-01-30T04:22:45;102857.19;;;8.67;43.33
33404;BME280;19751;40.274;18.268;2024-01-30T04:25:13;102854.50;;;8.67;43.31
33404;BME280;19751;40.274;18.268;2024-01-30T04:27:39;102852.78;;;8.66;43.25
33404;BME280;19751;40.274;18.268;2024-01-30T04:30:05;102849.25;;;8.66;43.01
33404;BME280;19751;40.274;18.268;2024-01-30T04:32:32;102850.97;;;8.67;43.44
33404;BME280;19751;40.274;18.268;2024-01-30T04:34:58;102853.66;;;8.67;43.31
33404;BME280;19751;40.274;18.268;2024-01-30T04:37:23;102861.59;;;8.68;43.10
33404;BME280;19751;40.274;18.268;2024-01-30T04:39:49;102859.75;;;8.69;43.73
33404;BME280;19751;40.274;18.268;2024-01-30T04:42:15;102849.00;;;8.69;44.24
33404;BME280;19751;40.274;18.268;2024-01-30T04:44:40;102859.03;;;8.67;44.20
33404;BME280;19751;40.274;18.268;2024-01-30T04:47:06;102863.66;;;8.65;44.32
33404;BME280;19751;40.274;18.268;2024-01-30T04:49:34;102862.81;;;8.64;44.35
33404;BME280;19751;40.274;18.268;2024-01-30T04:52:00;102868.31;;;8.63;44.64
33404;BME280;19751;40.274;18.268;2024-01-30T04:54:26;102863.91;;;8.62;45.17
33404;BME280;19751;40.274;18.268;2024-01-30T04:56:51;102869.28;;;8.62;45.07
33404;BME280;19751;40.274;18.268;2024-01-30T04:59:17;102867.34;;;8.64;44.99
33404;BME280;19751;40.274;18.268;2024-01-30T05:01:42;102869.41;;;8.60;44.58
33404;BME280;19751;40.274;18.268;2024-01-30T05:04:09;102870.41;;;8.59;44.26
33404;BME280;19751;40.274;18.268;2024-01-30T05:06:34;102872.34;;;8.57;44.11
33404;BME280;19751;40.274;18.268;2024-01-30T05:09:00;102871.50;;;8.57;43.67
33404;BME280;19751;40.274;18.268;2024-01-30T05:11:26;102875.88;;;8.58;43.78
33404;BME280;19751;40.274;18.268;2024-01-30T05:13:51;102872.25;;;8.59;44.27
33404;BME280;19751;40.274;18.268;2024-01-30T05:16:16;102874.03;;;8.58;44.33
33404;BME280;19751;40.274;18.268;2024-01-30T05:18:43;102878.69;;;8.56;44.93
33404;BME280;19751;40.274;18.268;2024-01-30T05:21:08;102877.00;;;8.55;44.55
33404;BME280;19751;40.274;18.268;2024-01-30T05:23:34;102882.47;;;8.54;44.77
33404;BME280;19751;40.274;18.268;2024-01-30T05:25:59;102877.97;;;8.54;45.12
33404;BME280;19751;40.274;18.268;2024-01-30T05:28:26;102877.09;;;8.54;45.07
33404;BME280;19751;40.274;18.268;2024-01-30T05:30:52;102870.88;;;8.53;44.81
33404;BME280;19751;40.274;18.268;2024-01-30T05:33:17;102884.44;;;8.52;44.18
33404;BME280;19751;40.274;18.268;2024-01-30T05:35:43;102879.31;;;8.49;44.15
33404;BME280;19751;40.274;18.268;2024-01-30T05:38:08;102879.19;;;8.50;43.99
33404;BME280;19751;40.274;18.268;2024-01-30T05:40:34;102877.09;;;8.54;44.35
33404;BME280;19751;40.274;18.268;2024-01-30T05:42:59;102878.69;;;8.56;44.06
33404;BME280;19751;40.274;18.268;2024-01-30T05:45:26;102886.91;;;8.55;44.22
33404;BME280;19751;40.274;18.268;2024-01-30T05:47:52;102894.06;;;8.54;44.06
33404;BME280;19751;40.274;18.268;2024-01-30T05:52:51;102894.22;;;8.53;43.49
33404;BME280;19751;40.274;18.268;2024-01-30T05:55:16;102895.06;;;8.53;43.85
33404;BME280;19751;40.274;18.268;2024-01-30T05:57:42;102890.44;;;8.55;43.83
33404;BME280;19751;40.274;18.268;2024-01-30T06:00:08;102895.66;;;8.57;43.71
33404;BME280;19751;40.274;18.268;2024-01-30T06:02:34;102893.84;;;8.57;43.92
33404;BME280;19751;40.274;18.268;2024-01-30T06:04:59;102902.13;;;8.54;44.01
33404;BME280;19751;40.274;18.268;2024-01-30T06:07:25;102910.31;;;8.53;44.46
33404;BME280;19751;40.274;18.268;2024-01-30T06:09:50;102906.66;;;8.54;44.53
33404;BME280;19751;40.274;18.268;2024-01-30T06:12:16;102904.81;;;8.54;44.42
33404;BME280;19751;40.274;18.268;2024-01-30T06:14:42;102909.34;;;8.54;44.75
33404;BME280;19751;40.274;18.268;2024-01-30T06:17:08;102912.88;;;8.54;44.27
33404;BME280;19751;40.274;18.268;2024-01-30T06:19:34;102917.16;;;8.57;44.06
33404;BME280;19751;40.274;18.268;2024-01-30T06:22:00;102918.16;;;8.56;44.39
33404;BME280;19751;40.274;18.268;2024-01-30T06:24:26;102915.47;;;8.56;44.11
33404;BME280;19751;40.274;18.268;2024-01-30T06:26:53;102918.75;;;8.59;44.06
33404;BME280;19751;40.274;18.268;2024-01-30T06:29:18;102916.16;;;8.58;44.36
33404;BME280;19751;40.274;18.268;2024-01-30T06:31:44;102925.69;;;8.62;44.38
33404;BME280;19751;40.274;18.268;2024-01-30T06:34:10;102921.53;;;8.58;44.25
33404;BME280;19751;40.274;18.268;2024-01-30T06:36:37;102926.69;;;8.61;44.25
33404;BME280;19751;40.274;18.268;2024-01-30T06:39:03;102929.97;;;8.64;44.77
33404;BME280;19751;40.274;18.268;2024-01-30T06:41:29;102922.78;;;8.65;44.96
33404;BME280;19751;40.274;18.268;2024-01-30T06:43:56;102923.38;;;8.68;45.69
33404;BME280;19751;40.274;18.268;2024-01-30T06:46:21;102934.75;;;8.72;45.62
33404;BME280;19751;40.274;18.268;2024-01-30T06:48:47;102942.56;;;8.75;45.93
33404;BME280;19751;40.274;18.268;2024-01-30T06:51:12;102936.19;;;8.76;45.95
33404;BME280;19751;40.274;18.268;2024-01-30T06:53:38;102943.03;;;8.80;45.80
33404;BME280;19751;40.274;18.268;2024-01-30T06:56:05;102940.22;;;8.82;45.37
33404;BME280;19751;40.274;18.268;2024-01-30T06:58:30;102938.13;;;8.85;45.53
33404;BME280;19751;40.274;18.268;2024-01-30T07:00:57;102946.81;;;8.89;45.88
33404;BME280;19751;40.274;18.268;2024-01-30T07:03:24;102946.81;;;8.89;45.64
33404;BME280;19751;40.274;18.268;2024-01-30T07:05:49;102944.72;;;8.92;45.86
33404;BME280;19751;40.274;18.268;2024-01-30T07:08:16;102947.03;;;8.97;46.56
33404;BME280;19751;40.274;18.268;2024-01-30T07:10:44;102946.66;;;9.02;46.39
33404;BME280;19751;40.274;18.268;2024-01-30T07:13:13;102950.81;;;9.06;46.67
33404;BME280;19751;40.274;18.268;2024-01-30T07:15:38;102947.97;;;9.07;46.36
33404;BME280;19751;40.274;18.268;2024-01-30T07:18:06;102948.84;;;9.08;46.81
33404;BME280;19751;40.274;18.268;2024-01-30T07:20:31;102953.25;;;9.09;46.44
33404;BME280;19751;40.274;18.268;2024-01-30T07:23:00;102948.72;;;9.09;46.37
33404;BME280;19751;40.274;18.268;2024-01-30T07:25:26;102949.19;;;9.14;46.20
33404;BME280;19751;40.274;18.268;2024-01-30T07:27:56;102953.47;;;9.17;46.32
33404;BME280;19751;40.274;18.268;2024-01-30T07:30:22;102955.88;;;9.20;45.97
33404;BME280;19751;40.274;18.268;2024-01-30T07:32:49;102953.94;;;9.22;45.95
33404;BME280;19751;40.274;18.268;2024-01-30T07:35:15;102958.09;;;9.26;45.75
33404;BME280;19751;40.274;18.268;2024-01-30T07:37:41;102957.84;;;9.29;46.06
33404;BME280;19751;40.274;18.268;2024-01-30T07:40:07;102965.63;;;9.32;45.71
33404;BME280;19751;40.274;18.268;2024-01-30T07:42:33;102967.47;;;9.32;45.32
33404;BME280;19751;40.274;18.268;2024-01-30T07:45:00;102961.09;;;9.33;45.42
33404;BME280;19751;40.274;18.268;2024-01-30T07:47:26;102959.03;;;9.36;45.69
33404;BME280;19751;40.274;18.268;2024-01-30T07:49:52;102973.94;;;9.40;45.64
33404;BME280;19751;40.274;18.268;2024-01-30T07:52:19;102967.69;;;9.40;45.30
33404;BME280;19751;40.274;18.268;2024-01-30T07:54:48;102973.22;;;9.38;44.92
33404;BME280;19751;40.274;18.268;2024-01-30T07:57:14;102975.06;;;9.38;44.93
33404;BME280;19751;40.274;18.268;2024-01-30T07:59:42;102974.91;;;9.39;45.15
33404;BME280;19751;40.274;18.268;2024-01-30T08:02:09;102975.06;;;9.38;44.86
33404;BME280;19751;40.274;18.268;2024-01-30T08:04:35;102980.16;;;9.41;44.87
33404;BME280;19751;40.274;18.268;2024-01-30T08:07:00;102977.59;;;9.39;44.56
33404;BME280;19751;40.274;18.268;2024-01-30T08:09:26;102977.47;;;9.41;44.39
33404;BME280;19751;40.274;18.268;2024-01-30T08:11:52;102986.28;;;9.43;43.85
33404;BME280;19751;40.274;18.268;2024-01-30T08:14:17;102992.38;;;9.45;44.06
33404;BME280;19751;40.274;18.268;2024-01-30T08:16:43;102979.53;;;9.49;44.03
33404;BME280;19751;40.274;18.268;2024-01-30T08:19:09;102989.28;;;9.50;43.68
33404;BME280;19751;40.274;18.268;2024-01-30T08:21:35;102984.41;;;9.55;43.52
33404;BME280;19751;40.274;18.268;2024-01-30T08:24:05;102983.03;;;9.60;43.90
33404;BME280;19751;40.274;18.268;2024-01-30T08:26:34;102975.56;;;9.64;43.72
33404;BME280;19751;40.274;18.268;2024-01-30T08:29:01;102982.78;;;9.63;43.63
33404;BME280;19751;40.274;18.268;2024-01-30T08:31:27;102974.72;;;9.63;43.13
33404;BME280;19751;40.274;18.268;2024-01-30T08:33:52;102972.13;;;9.62;43.10
33404;BME280;19751;40.274;18.268;2024-01-30T08:36:18;102974.72;;;9.63;43.36
33404;BME280;19751;40.274;18.268;2024-01-30T08:38:43;102977.16;;;9.66;43.18
33404;BME280;19751;40.274;18.268;2024-01-30T08:41:09;102979.84;;;9.66;43.09
33404;BME280;19751;40.274;18.268;2024-01-30T08:43:35;102979.84;;;9.66;43.32
33404;BME280;19751;40.274;18.268;2024-01-30T08:46:02;102990.31;;;9.69;43.43
33404;BME280;19751;40.274;18.268;2024-01-30T08:48:27;102986.41;;;9.74;43.79
33404;BME280;19751;40.274;18.268;2024-01-30T08:50:53;102989.94;;;9.74;44.18
33404;BME280;19751;40.274;18.268;2024-01-30T08:53:19;102987.38;;;9.73;43.80
33404;BME280;19751;40.274;18.268;2024-01-30T08:55:45;102994.59;;;9.72;43.68
33404;BME280;19751;40.274;18.268;2024-01-30T08:58:10;102991.47;;;9.67;43.90
33404;BME280;19751;40.274;18.268;2024-01-30T09:00:36;102993.16;;;9.68;43.80
33404;BME280;19751;40.274;18.268;2024-01-30T09:03:02;102987.53;;;9.71;44.40
33404;BME280;19751;40.274;18.268;2024-01-30T09:05:27;102995.31;;;9.74;44.38
33404;BME280;19751;40.274;18.268;2024-01-30T09:07:53;102991.53;;;9.77;44.34
33404;BME280;19751;40.274;18.268;2024-01-30T09:10:19;102995.81;;;9.79;44.34
33404;BME280;19751;40.274;18.268;2024-01-30T09:12:46;103000.34;;;9.79;44.31
33404;BME280;19751;40.274;18.268;2024-01-30T09:15:12;102999.97;;;9.83;44.66
33404;BME280;19751;40.274;18.268;2024-01-30T09:17:37;103009.72;;;9.84;44.49
33404;BME280;19751;40.274;18.268;2024-01-30T09:20:03;103003.22;;;9.87;44.48
33404;BME280;19751;40.274;18.268;2024-01-30T09:22:29;103004.81;;;9.89;44.75
33404;BME280;19751;40.274;18.268;2024-01-30T09:24:55;103011.88;;;9.90;44.60
33404;BME280;19751;40.274;18.268;2024-01-30T09:27:20;103014.47;;;9.92;44.77
33404;BME280;19751;40.274;18.268;2024-01-30T09:29:46;103016.31;;;9.91;44.77
33404;BME280;19751;40.274;18.268;2024-01-30T09:32:11;103022.66;;;9.90;44.34
33404;BME280;19751;40.274;18.268;2024-01-30T09:34:37;103011.03;;;9.90;44.41
33404;BME280;19751;40.274;18.268;2024-01-30T09:37:04;103003.81;;;9.90;44.41
33404;BME280;19751;40.274;18.268;2024-01-30T09:39:30;103013.34;;;9.94;44.36
33404;BME280;19751;40.274;18.268;2024-01-30T09:42:17;103005.53;;;9.91;44.81
33404;BME280;19751;40.274;18.268;2024-01-30T09:44:47;103007.50;;;9.89;44.72
33404;BME280;19751;40.274;18.268;2024-01-30T09:47:16;103004.66;;;9.91;45.18
33404;BME280;19751;40.274;18.268;2024-01-30T09:49:43;103008.22;;;9.91;45.32
33404;BME280;19751;40.274;18.268;2024-01-30T09:52:09;102990.50;;;9.89;45.11
33404;BME280;19751;40.274;18.268;2024-01-30T09:54:36;102987.66;;;9.90;45.40
33404;BME280;19751;40.274;18.268;2024-01-30T09:57:03;102980.72;;;9.88;45.55
33404;BME280;19751;40.274;18.268;2024-01-30T09:59:29;103008.50;;;9.88;45.80
33404;BME280;19751;40.274;18.268;2024-01-30T10:01:56;102995.88;;;9.89;45.05
33404;BME280;19751;40.274;18.268;2024-01-30T10:04:22;102988.78;;;9.88;44.77
33404;BME280;19751;40.274;18.268;2024-01-30T10:06:47;102979.97;;;9.86;44.16
33404;BME280;19751;40.274;18.268;2024-01-30T10:09:13;102984.25;;;9.88;44.36
33404;BME280;19751;40.274;18.268;2024-01-30T10:11:39;102975.94;;;9.91;44.60
33404;BME280;19751;40.274;18.268;2024-01-30T10:14:04;102983.00;;;9.92;44.89
33404;BME280;19751;40.274;18.268;2024-01-30T10:16:30;102987.41;;;9.93;45.15
33404;BME280;19751;40.274;18.268;2024-01-30T10:18:55;102975.78;;;9.93;43.96
33404;BME280;19751;40.274;18.268;2024-01-30T10:21:22;102982.03;;;9.93;43.97
33404;BME280;19751;40.274;18.268;2024-01-30T10:23:47;102984.22;;;10.00;44.13
33404;BME280;19751;40.274;18.268;2024-01-30T10:26:16;102980.38;;;10.02;44.13
33404;BME280;19751;40.274;18.268;2024-01-30T10:28:42;102985.91;;;10.01;44.89
33404;BME280;19751;40.274;18.268;2024-01-30T10:31:08;102983.31;;;9.99;44.83
33404;BME280;19751;40.274;18.268;2024-01-30T10:33:34;102975.84;;;10.03;44.83
33404;BME280;19751;40.274;18.268;2024-01-30T10:36:04;102972.91;;;10.06;44.90
33404;BME280;19751;40.274;18.268;2024-01-30T10:38:31;102972.66;;;10.09;45.11
33404;BME280;19751;40.274;18.268;2024-01-30T10:40:58;102970.94;;;10.08;45.94
33404;BME280;19751;40.274;18.268;2024-01-30T10:43:35;102964.56;;;10.09;46.08
33404;BME280;19751;40.274;18.268;2024-01-30T10:46:21;102972.38;;;10.12;46.33
33404;BME280;19751;40.274;18.268;2024-01-30T10:48:57;102960.63;;;10.13;46.75
33404;BME280;19751;40.274;18.268;2024-01-30T10:51:28;102967.13;;;10.10;46.62
33404;BME280;19751;40.274;18.268;2024-01-30T10:53:56;102958.19;;;10.10;46.31
33404;BME280;19751;40.274;18.268;2024-01-30T10:56:22;102948.25;;;10.10;46.00
33404;BME280;19751;40.274;18.268;2024-01-30T10:58:52;102953.25;;;10.15;46.17
33404;BME280;19751;40.274;18.268;2024-01-30T11:01:22;102944.31;;;10.14;45.41
33404;BME280;19751;40.274;18.268;2024-01-30T11:03:52;102949.00;;;10.12;45.16
33404;BME280;19751;40.274;18.268;2024-01-30T11:06:18;102953.25;;;10.15;44.97
33404;BME280;19751;40.274;18.268;2024-01-30T11:08:46;102942.22;;;10.18;44.33
33404;BME280;19751;40.274;18.268;2024-01-30T11:11:25;102937.69;;;10.18;43.94
33404;BME280;19751;40.274;18.268;2024-01-30T11:13:50;102934.84;;;10.20;43.86
33404;BME280;19751;40.274;18.268;2024-01-30T11:16:16;102926.66;;;10.21;44.04
33404;BME280;19751;40.274;18.268;2024-01-30T11:18:41;102917.72;;;10.21;44.05
33404;BME280;19751;40.274;18.268;2024-01-30T11:21:07;102921.38;;;10.20;45.37
33404;BME280;19751;40.274;18.268;2024-01-30T11:23:35;102921.25;;;10.21;45.13
33404;BME280;19751;40.274;18.268;2024-01-30T11:26:01;102921.88;;;10.25;45.01
33404;BME280;19751;40.274;18.268;2024-01-30T11:28:33;102912.19;;;10.23;44.55
33404;BME280;19751;40.274;18.268;2024-01-30T11:31:05;102921.25;;;10.21;44.83
33404;BME280;19751;40.274;18.268;2024-01-30T11:33:32;102913.03;;;10.23;44.90
33404;BME280;19751;40.274;18.268;2024-01-30T11:36:00;102913.81;;;10.25;44.79
33404;BME280;19751;40.274;18.268;2024-01-30T11:38:27;102899.19;;;10.28;44.65
33404;BME280;19751;40.274;18.268;2024-01-30T11:40:54;102902.38;;;10.33;44.15
33404;BME280;19751;40.274;18.268;2024-01-30T11:43:21;102898.09;;;10.30;41.91
33404;BME280;19751;40.274;18.268;2024-01-30T11:45:47;102902.63;;;10.30;41.75
33404;BME280;19751;40.274;18.268;2024-01-30T11:48:14;102900.78;;;10.30;42.01
33404;BME280;19751;40.274;18.268;2024-01-30T11:50:40;102902.47;;;10.31;41.33
33404;BME280;19751;40.274;18.268;2024-01-30T11:53:10;102894.28;;;10.33;40.98
33404;BME280;19751;40.274;18.268;2024-01-30T11:55:35;102897.81;;;10.33;40.82
33404;BME280;19751;40.274;18.268;2024-01-30T11:58:03;102891.59;;;10.33;41.89
33404;BME280;19751;40.274;18.268;2024-01-30T12:00:32;102892.44;;;10.33;41.64
33404;BME280;19751;40.274;18.268;2024-01-30T12:02:58;102888.00;;;10.32;41.19
33404;BME280;19751;40.274;18.268;2024-01-30T12:05:26;102894.13;;;10.34;41.36
33404;BME280;19751;40.274;18.268;2024-01-30T12:07:53;102883.38;;;10.34;41.87
33404;BME280;19751;40.274;18.268;2024-01-30T12:10:18;102901.22;;;10.35;41.70
33404;BME280;19751;40.274;18.268;2024-01-30T12:12:49;102893.13;;;10.35;40.73
33404;BME280;19751;40.274;18.268;2024-01-30T12:15:16;102883.94;;;10.38;41.10
33404;BME280;19751;40.274;18.268;2024-01-30T12:17:41;102895.31;;;10.41;41.38
33404;BME280;19751;40.274;18.268;2024-01-30T12:20:08;102879.16;;;10.41;41.26
33404;BME280;19751;40.274;18.268;2024-01-30T12:22:40;102870.06;;;10.42;42.01
33404;BME280;19751;40.274;18.268;2024-01-30T12:25:10;102876.88;;;10.47;42.45
33404;BME280;19751;40.274;18.268;2024-01-30T12:27:37;102872.75;;;10.42;42.12
33404;BME280;19751;40.274;18.268;2024-01-30T12:30:07;102873.88;;;10.40;42.14
33404;BME280;19751;40.274;18.268;2024-01-30T12:32:37;102864.09;;;10.39;42.21
33404;BME280;19751;40.274;18.268;2024-01-30T12:35:03;102874.88;;;10.39;42.34
33404;BME280;19751;40.274;18.268;2024-01-30T12:37:30;102866.38;;;10.43;42.90
33404;BME280;19751;40.274;18.268;2024-01-30T12:39:56;102874.88;;;10.49;43.17
33404;BME280;19751;40.274;18.268;2024-01-30T12:42:22;102871.78;;;10.53;43.28
33404;BME280;19751;40.274;18.268;2024-01-30T12:44:48;102861.00;;;10.53;42.40
33404;BME280;19751;40.274;18.268;2024-01-30T12:47:15;102861.00;;;10.53;42.25
33404;BME280;19751;40.274;18.268;2024-01-30T12:49:44;102872.78;;;10.52;41.95
33404;BME280;19751;40.274;18.268;2024-01-30T12:54:38;102857.88;;;10.48;42.55